createdAt,value
2019-02-10T00:00:46.156Z,8.21
2019-02-10T00:01:46.081Z,8.17
2019-02-10T00:02:45.992Z,8.14
2019-02-10T00:03:45.914Z,8.06
2019-02-10T00:04:45.830Z,7.94
2019-02-10T00:05:45.748Z,8.07
2019-02-10T00:06:45.670Z,8.14
2019-02-10T00:07:45.588Z,8.18
2019-02-10T00:08:45.506Z,8.18
2019-02-10T00:09:45.425Z,8.19
2019-02-10T00:10:45.343Z,8.21
2019-02-10T00:11:45.262Z,8.19
2019-02-10T00:12:45.183Z,8.19
2019-02-10T00:13:45.101Z,8.24
2019-02-10T00:14:45.020Z,8.29
2019-02-10T00:15:44.940Z,8.27
2019-02-10T00:16:44.859Z,8.40
2019-02-10T00:17:44.779Z,8.43
2019-02-10T00:18:44.698Z,8.51
2019-02-10T00:19:44.615Z,8.39
2019-02-10T00:20:44.534Z,8.18
2019-02-10T00:21:44.453Z,8.30
2019-02-10T00:22:44.623Z,8.27
2019-02-10T00:23:44.295Z,8.43
2019-02-10T00:24:44.212Z,8.54
2019-02-10T00:25:44.129Z,8.43
2019-02-10T00:26:44.050Z,8.39
2019-02-10T00:27:43.969Z,8.25
2019-02-10T00:28:43.886Z,8.17
2019-02-10T00:29:43.806Z,8.22
2019-02-10T00:30:43.725Z,8.22
2019-02-10T00:31:43.648Z,8.21
2019-02-10T00:32:43.565Z,8.11
2019-02-10T00:33:43.482Z,8.07
2019-02-10T00:34:43.402Z,7.97
2019-02-10T00:35:43.325Z,7.76
2019-02-10T00:36:43.242Z,7.68
2019-02-10T00:37:43.159Z,7.73
2019-02-10T00:38:43.079Z,7.78
2019-02-10T00:39:42.998Z,7.75
2019-02-10T00:40:43.067Z,7.59
2019-02-10T00:41:42.838Z,7.57
2019-02-10T00:42:42.755Z,7.45
2019-02-10T00:43:42.675Z,7.13
2019-02-10T00:44:42.594Z,7.23
2019-02-10T00:45:42.512Z,6.99
2019-02-10T00:46:42.431Z,6.99
2019-02-10T00:47:42.351Z,7.09
2019-02-10T00:48:42.270Z,7.03
2019-02-10T00:49:42.188Z,7.11
2019-02-10T00:50:42.108Z,7.11
2019-02-10T00:51:42.028Z,6.94
2019-02-10T00:52:41.948Z,6.84
2019-02-10T00:53:41.865Z,6.84
2019-02-10T00:54:41.784Z,6.81
2019-02-10T00:55:41.703Z,6.83
2019-02-10T00:56:41.623Z,6.75
2019-02-10T00:57:41.540Z,6.76
2019-02-10T00:58:41.459Z,6.72
2019-02-10T00:59:41.379Z,6.66
2019-02-10T01:00:41.297Z,6.65
2019-02-10T01:01:41.215Z,6.57
2019-02-10T01:02:41.135Z,6.54
2019-02-10T01:03:41.054Z,6.55
2019-02-10T01:04:40.974Z,6.68
2019-02-10T01:05:40.894Z,6.65
2019-02-10T01:06:41.681Z,6.65
2019-02-10T01:07:40.730Z,6.63
2019-02-10T01:08:40.649Z,6.52
2019-02-10T01:09:40.568Z,6.52
2019-02-10T01:10:40.486Z,6.62
2019-02-10T01:11:40.406Z,6.76
2019-02-10T01:12:40.323Z,6.66
2019-02-10T01:13:40.242Z,6.65
2019-02-10T01:14:40.161Z,6.55
2019-02-10T01:15:40.081Z,6.57
2019-02-10T01:16:40.001Z,6.48
2019-02-10T01:17:39.918Z,6.66
2019-02-10T01:18:39.839Z,6.70
2019-02-10T01:19:39.757Z,6.69
2019-02-10T01:20:39.675Z,6.73
2019-02-10T01:21:39.606Z,6.72
2019-02-10T01:22:39.515Z,6.72
2019-02-10T01:23:39.434Z,6.70
2019-02-10T01:24:39.353Z,6.75
2019-02-10T01:25:39.270Z,6.69
2019-02-10T01:26:39.190Z,6.73
2019-02-10T01:27:39.110Z,6.72
2019-02-10T01:28:39.029Z,6.78
2019-02-10T01:29:38.947Z,6.84
2019-02-10T01:30:38.867Z,6.84
2019-02-10T01:31:38.786Z,6.91
2019-02-10T01:32:38.705Z,6.91
2019-02-10T01:33:38.623Z,6.80
2019-02-10T01:34:38.542Z,6.87
2019-02-10T01:35:38.463Z,6.91
2019-02-10T01:36:38.383Z,6.87
2019-02-10T01:37:38.301Z,6.88
2019-02-10T01:38:38.228Z,6.88
2019-02-10T01:39:38.139Z,6.86
2019-02-10T01:40:38.062Z,6.73
2019-02-10T01:41:37.976Z,6.78
2019-02-10T01:42:37.899Z,6.76
2019-02-10T01:43:37.816Z,6.78
2019-02-10T01:44:37.736Z,6.72
2019-02-10T01:45:37.656Z,6.80
2019-02-10T01:46:37.577Z,6.80
2019-02-10T01:47:37.494Z,6.75
2019-02-10T01:48:37.563Z,6.99
2019-02-10T01:49:37.331Z,7.12
2019-02-10T01:50:37.253Z,7.11
2019-02-10T01:51:37.171Z,7.09
2019-02-10T01:52:37.091Z,7.20
2019-02-10T01:53:37.008Z,7.24
2019-02-10T01:54:36.929Z,7.23
2019-02-10T01:55:36.848Z,7.35
2019-02-10T01:56:36.767Z,7.34
2019-02-10T01:57:36.686Z,7.35
2019-02-10T01:58:36.605Z,7.35
2019-02-10T01:59:36.525Z,7.37
2019-02-10T02:00:36.444Z,7.35
2019-02-10T02:01:36.363Z,7.45
2019-02-10T02:02:36.284Z,7.47
2019-02-10T02:03:36.201Z,7.45
2019-02-10T02:04:36.126Z,7.52
2019-02-10T02:05:36.040Z,7.62
2019-02-10T02:06:35.961Z,7.64
2019-02-10T02:07:35.879Z,7.68
2019-02-10T02:08:35.799Z,7.72
2019-02-10T02:09:35.717Z,7.81
2019-02-10T02:10:35.638Z,7.79
2019-02-10T02:11:35.557Z,7.76
2019-02-10T02:12:35.477Z,7.76
2019-02-10T02:13:36.494Z,7.75
2019-02-10T02:14:35.314Z,7.81
2019-02-10T02:15:35.234Z,7.73
2019-02-10T02:16:35.154Z,7.78
2019-02-10T02:17:35.073Z,7.81
2019-02-10T02:18:34.992Z,7.88
2019-02-10T02:19:34.912Z,7.85
2019-02-10T02:20:34.831Z,7.93
2019-02-10T02:21:34.752Z,7.79
2019-02-10T02:22:34.672Z,7.90
2019-02-10T02:23:34.589Z,7.82
2019-02-10T02:24:34.509Z,7.79
2019-02-10T02:25:34.432Z,7.79
2019-02-10T02:26:34.348Z,7.72
2019-02-10T02:27:34.266Z,7.86
2019-02-10T02:28:34.196Z,7.78
2019-02-10T02:29:34.105Z,7.75
2019-02-10T02:30:34.027Z,7.78
2019-02-10T02:31:33.950Z,7.85
2019-02-10T02:32:33.865Z,7.79
2019-02-10T02:33:33.784Z,7.75
2019-02-10T02:34:33.702Z,7.76
2019-02-10T02:35:33.624Z,7.72
2019-02-10T02:36:33.541Z,7.73
2019-02-10T02:37:33.459Z,7.62
2019-02-10T02:38:33.380Z,7.56
2019-02-10T02:39:33.299Z,7.53
2019-02-10T02:40:33.218Z,7.53
2019-02-10T02:41:33.137Z,7.52
2019-02-10T02:42:33.059Z,7.44
2019-02-10T02:43:32.978Z,7.44
2019-02-10T02:44:32.898Z,7.35
2019-02-10T02:45:32.815Z,7.41
2019-02-10T02:46:32.739Z,7.47
2019-02-10T02:47:32.659Z,7.41
2019-02-10T02:48:32.574Z,7.42
2019-02-10T02:49:32.493Z,7.49
2019-02-10T02:50:32.417Z,7.56
2019-02-10T02:51:32.331Z,7.52
2019-02-10T02:52:32.251Z,7.60
2019-02-10T02:53:32.170Z,7.70
2019-02-10T02:54:32.092Z,7.81
2019-02-10T02:55:32.010Z,7.99
2019-02-10T02:56:31.929Z,8.14
2019-02-10T02:57:31.848Z,8.19
2019-02-10T02:58:31.768Z,8.21
2019-02-10T02:59:31.689Z,8.21
2019-02-10T03:00:31.608Z,8.27
2019-02-10T03:01:31.526Z,8.34
2019-02-10T03:02:31.447Z,8.36
2019-02-10T03:03:31.418Z,8.50
2019-02-10T03:04:31.285Z,8.40
2019-02-10T03:05:31.203Z,8.50
2019-02-10T03:06:31.123Z,8.48
2019-02-10T03:07:31.044Z,8.42
2019-02-10T03:08:30.966Z,8.40
2019-02-10T03:09:30.883Z,8.48
2019-02-10T03:10:30.801Z,8.58
2019-02-10T03:11:30.722Z,8.61
2019-02-10T03:12:30.639Z,8.76
2019-02-10T03:13:30.559Z,8.80
2019-02-10T03:14:30.489Z,8.77
2019-02-10T03:15:30.401Z,8.77
2019-02-10T03:16:30.318Z,8.73
2019-02-10T03:17:30.237Z,8.72
2019-02-10T03:18:30.165Z,8.69
2019-02-10T03:19:30.176Z,8.75
2019-02-10T03:20:29.995Z,8.80
2019-02-10T03:21:29.914Z,8.85
2019-02-10T03:22:29.834Z,8.84
2019-02-10T03:23:29.753Z,8.77
2019-02-10T03:24:29.674Z,8.73
2019-02-10T03:25:29.744Z,8.69
2019-02-10T03:26:29.515Z,8.73
2019-02-10T03:27:29.434Z,8.66
2019-02-10T03:28:29.352Z,8.77
2019-02-10T03:29:29.270Z,8.76
2019-02-10T03:30:29.195Z,8.85
2019-02-10T03:31:29.112Z,8.82
2019-02-10T03:32:29.046Z,8.85
2019-02-10T03:33:28.951Z,8.84
2019-02-10T03:34:28.870Z,8.90
2019-02-10T03:35:28.793Z,8.88
2019-02-10T03:36:28.759Z,8.90
2019-02-10T03:37:28.629Z,8.94
2019-02-10T03:38:28.548Z,8.88
2019-02-10T03:39:28.470Z,8.94
2019-02-10T03:40:28.388Z,8.90
2019-02-10T03:41:28.308Z,8.88
2019-02-10T03:42:28.228Z,8.87
2019-02-10T03:43:28.149Z,8.76
2019-02-10T03:44:28.071Z,8.84
2019-02-10T03:45:27.989Z,8.82
2019-02-10T03:46:27.907Z,8.82
2019-02-10T03:47:27.826Z,8.72
2019-02-10T03:48:27.752Z,8.79
2019-02-10T03:49:27.666Z,8.69
2019-02-10T03:50:27.587Z,8.66
2019-02-10T03:51:27.606Z,8.68
2019-02-10T03:52:27.429Z,8.58
2019-02-10T03:53:27.357Z,8.58
2019-02-10T03:54:27.265Z,8.54
2019-02-10T03:55:27.189Z,8.58
2019-02-10T03:56:27.208Z,8.58
2019-02-10T03:57:27.025Z,8.65
2019-02-10T03:58:26.946Z,8.66
2019-02-10T03:59:26.865Z,8.58
2019-02-10T04:00:26.786Z,8.57
2019-02-10T04:01:26.704Z,8.48
2019-02-10T04:02:26.645Z,8.54
2019-02-10T04:03:26.544Z,8.42
2019-02-10T04:04:26.471Z,8.48
2019-02-10T04:05:26.382Z,8.69
2019-02-10T04:06:26.358Z,8.79
2019-02-10T04:07:26.222Z,8.76
2019-02-10T04:08:26.144Z,8.70
2019-02-10T04:09:26.064Z,8.70
2019-02-10T04:10:25.981Z,8.68
2019-02-10T04:11:25.902Z,8.62
2019-02-10T04:12:25.822Z,8.57
2019-02-10T04:13:25.740Z,8.60
2019-02-10T04:14:25.660Z,8.57
2019-02-10T04:15:25.581Z,8.58
2019-02-10T04:16:25.501Z,8.55
2019-02-10T04:17:25.420Z,8.42
2019-02-10T04:18:25.339Z,8.51
2019-02-10T04:19:25.260Z,8.51
2019-02-10T04:20:25.179Z,8.54
2019-02-10T04:21:25.098Z,8.54
2019-02-10T04:22:25.017Z,8.44
2019-02-10T04:23:24.937Z,8.42
2019-02-10T04:24:24.857Z,8.50
2019-02-10T04:25:24.775Z,8.40
2019-02-10T04:26:24.696Z,8.42
2019-02-10T04:27:24.616Z,8.48
2019-02-10T04:28:24.536Z,8.44
2019-02-10T04:29:24.454Z,8.42
2019-02-10T04:30:24.383Z,8.44
2019-02-10T04:31:24.295Z,8.42
2019-02-10T04:32:24.213Z,8.39
2019-02-10T04:33:24.233Z,8.37
2019-02-10T04:34:24.054Z,8.40
2019-02-10T04:35:23.972Z,8.44
2019-02-10T04:36:23.890Z,8.55
2019-02-10T04:37:23.810Z,8.52
2019-02-10T04:38:23.730Z,8.44
2019-02-10T04:39:23.650Z,8.47
2019-02-10T04:40:23.569Z,8.50
2019-02-10T04:41:23.492Z,8.44
2019-02-10T04:42:23.408Z,8.47
2019-02-10T04:43:23.327Z,8.43
2019-02-10T04:44:23.247Z,8.51
2019-02-10T04:45:23.168Z,8.44
2019-02-10T04:46:23.086Z,8.47
2019-02-10T04:47:23.007Z,8.40
2019-02-10T04:48:22.924Z,8.43
2019-02-10T04:49:22.844Z,8.37
2019-02-10T04:50:22.762Z,8.34
2019-02-10T04:51:22.683Z,8.27
2019-02-10T04:52:22.603Z,8.36
2019-02-10T04:53:22.523Z,8.27
2019-02-10T04:54:22.444Z,8.32
2019-02-10T04:55:22.361Z,8.32
2019-02-10T04:56:22.281Z,8.29
2019-02-10T04:57:22.201Z,8.24
2019-02-10T04:58:22.120Z,8.21
2019-02-10T04:59:22.040Z,8.14
2019-02-10T05:00:22.061Z,8.21
2019-02-10T05:01:21.879Z,8.21
2019-02-10T05:02:21.799Z,8.19
2019-02-10T05:03:21.717Z,8.19
2019-02-10T05:04:21.638Z,8.21
2019-02-10T05:05:21.557Z,8.24
2019-02-10T05:06:21.527Z,8.18
2019-02-10T05:07:21.400Z,8.17
2019-02-10T05:08:21.316Z,8.21
2019-02-10T05:09:21.236Z,8.30
2019-02-10T05:10:21.799Z,8.30
2019-02-10T05:11:21.075Z,8.36
2019-02-10T05:12:20.997Z,8.24
2019-02-10T05:13:20.917Z,8.29
2019-02-10T05:14:20.837Z,8.24
2019-02-10T05:15:20.756Z,8.24
2019-02-10T05:16:20.676Z,8.17
2019-02-10T05:17:20.596Z,8.24
2019-02-10T05:18:20.514Z,8.25
2019-02-10T05:19:20.436Z,8.19
2019-02-10T05:20:20.356Z,8.29
2019-02-10T05:21:20.283Z,8.33
2019-02-10T05:22:20.195Z,8.30
2019-02-10T05:23:20.124Z,8.27
2019-02-10T05:24:20.034Z,8.21
2019-02-10T05:25:19.953Z,8.27
2019-02-10T05:26:19.876Z,8.22
2019-02-10T05:27:19.795Z,8.17
2019-02-10T05:28:19.716Z,8.22
2019-02-10T05:29:19.634Z,8.29
2019-02-10T05:30:19.552Z,8.29
2019-02-10T05:31:19.471Z,8.21
2019-02-10T05:32:19.391Z,8.30
2019-02-10T05:33:19.311Z,8.29
2019-02-10T05:34:19.230Z,8.32
2019-02-10T05:35:19.151Z,8.34
2019-02-10T05:36:19.070Z,8.37
2019-02-10T05:37:18.989Z,8.44
2019-02-10T05:38:18.910Z,8.39
2019-02-10T05:39:18.830Z,8.51
2019-02-10T05:40:18.750Z,8.44
2019-02-10T05:41:18.669Z,8.43
2019-02-10T05:42:18.589Z,8.37
2019-02-10T05:43:18.508Z,8.51
2019-02-10T05:44:18.439Z,8.44
2019-02-10T05:45:18.349Z,8.50
2019-02-10T05:46:18.268Z,8.44
2019-02-10T05:47:19.382Z,8.50
2019-02-10T05:48:18.108Z,8.58
2019-02-10T05:49:18.030Z,8.55
2019-02-10T05:50:17.947Z,8.62
2019-02-10T05:51:17.885Z,8.66
2019-02-10T05:52:17.886Z,8.72
2019-02-10T05:53:17.707Z,8.65
2019-02-10T05:54:17.627Z,8.66
2019-02-10T05:55:17.547Z,8.54
2019-02-10T05:56:17.465Z,8.51
2019-02-10T05:57:17.485Z,8.54
2019-02-10T05:58:17.304Z,8.55
2019-02-10T05:59:17.227Z,8.58
2019-02-10T06:00:17.144Z,8.57
2019-02-10T06:01:17.063Z,8.54
2019-02-10T06:02:16.989Z,8.54
2019-02-10T06:03:16.902Z,8.58
2019-02-10T06:04:16.825Z,8.58
2019-02-10T06:05:16.778Z,8.66
2019-02-10T06:06:16.665Z,8.65
2019-02-10T06:07:16.932Z,8.68
2019-02-10T06:08:16.512Z,8.80
2019-02-10T06:09:16.422Z,8.65
2019-02-10T06:10:16.344Z,8.73
2019-02-10T06:11:16.263Z,8.76
2019-02-10T06:12:16.182Z,8.73
2019-02-10T06:13:16.101Z,8.77
2019-02-10T06:14:16.021Z,8.85
2019-02-10T06:15:15.943Z,8.87
2019-02-10T06:16:15.866Z,8.85
2019-02-10T06:17:15.781Z,8.88
2019-02-10T06:18:15.701Z,8.88
2019-02-10T06:19:15.771Z,8.88
2019-02-10T06:20:15.546Z,8.93
2019-02-10T06:21:15.461Z,8.88
2019-02-10T06:22:15.383Z,8.95
2019-02-10T06:23:15.302Z,9.00
2019-02-10T06:24:15.229Z,9.06
2019-02-10T06:25:15.142Z,9.02
2019-02-10T06:26:15.063Z,9.02
2019-02-10T06:27:14.983Z,8.98
2019-02-10T06:28:14.908Z,8.90
2019-02-10T06:29:14.830Z,8.91
2019-02-10T06:30:14.744Z,8.84
2019-02-10T06:31:14.663Z,8.98
2019-02-10T06:32:14.592Z,8.94
2019-02-10T06:33:14.506Z,9.02
2019-02-10T06:34:14.423Z,9.10
2019-02-10T06:35:14.346Z,9.02
2019-02-10T06:36:14.266Z,9.17
2019-02-10T06:37:14.188Z,9.17
2019-02-10T06:38:22.114Z,9.16
2019-02-10T06:39:14.077Z,9.17
2019-02-10T06:40:13.956Z,9.29
2019-02-10T06:41:13.870Z,9.27
2019-02-10T06:42:13.789Z,9.25
2019-02-10T06:43:13.708Z,9.27
2019-02-10T06:44:13.627Z,9.28
2019-02-10T06:45:13.547Z,9.27
2019-02-10T06:46:13.468Z,9.20
2019-02-10T06:47:13.388Z,9.20
2019-02-10T06:48:13.310Z,9.31
2019-02-10T06:49:13.229Z,9.27
2019-02-10T06:50:13.154Z,9.22
2019-02-10T06:51:13.070Z,9.32
2019-02-10T06:52:12.992Z,9.35
2019-02-10T06:53:12.911Z,9.24
2019-02-10T06:54:12.835Z,9.22
2019-02-10T06:55:12.752Z,9.22
2019-02-10T06:56:12.677Z,9.34
2019-02-10T06:57:12.593Z,9.46
2019-02-10T06:58:12.513Z,9.43
2019-02-10T06:59:12.434Z,9.49
2019-02-10T07:00:12.354Z,9.52
2019-02-10T07:01:12.276Z,9.58
2019-02-10T07:02:12.194Z,9.53
2019-02-10T07:03:12.116Z,9.56
2019-02-10T07:04:12.036Z,9.61
2019-02-10T07:05:11.954Z,9.74
2019-02-10T07:06:11.877Z,9.70
2019-02-10T07:07:11.797Z,9.75
2019-02-10T07:08:11.719Z,9.72
2019-02-10T07:09:11.637Z,9.58
2019-02-10T07:10:11.558Z,9.67
2019-02-10T07:11:11.486Z,9.56
2019-02-10T07:12:11.400Z,9.60
2019-02-10T07:13:11.322Z,9.70
2019-02-10T07:14:11.240Z,9.75
2019-02-10T07:15:11.161Z,9.74
2019-02-10T07:16:11.126Z,9.80
2019-02-10T07:17:11.003Z,9.70
2019-02-10T07:18:10.922Z,9.89
2019-02-10T07:19:10.843Z,9.80
2019-02-10T07:20:10.764Z,9.86
2019-02-10T07:21:10.683Z,9.89
2019-02-10T07:22:10.605Z,9.88
2019-02-10T07:23:10.526Z,9.82
2019-02-10T07:24:10.447Z,9.83
2019-02-10T07:25:10.369Z,9.82
2019-02-10T07:26:10.290Z,9.86
2019-02-10T07:27:10.209Z,9.88
2019-02-10T07:28:10.129Z,9.92
2019-02-10T07:29:10.050Z,10.03
2019-02-10T07:30:09.970Z,10.01
2019-02-10T07:31:09.892Z,10.00
2019-02-10T07:32:09.812Z,9.98
2019-02-10T07:33:09.735Z,10.01
2019-02-10T07:34:09.653Z,10.04
2019-02-10T07:35:09.575Z,10.01
2019-02-10T07:36:09.495Z,10.01
2019-02-10T07:37:09.416Z,10.13
2019-02-10T07:38:09.338Z,10.13
2019-02-10T07:39:09.258Z,10.13
2019-02-10T07:40:09.179Z,10.15
2019-02-10T07:41:09.200Z,10.15
2019-02-10T07:42:09.023Z,10.18
2019-02-10T07:43:08.942Z,10.21
2019-02-10T07:44:08.863Z,10.18
2019-02-10T07:45:08.784Z,10.34
2019-02-10T07:46:08.705Z,10.31
2019-02-10T07:47:08.627Z,10.18
2019-02-10T07:48:08.547Z,10.34
2019-02-10T07:49:08.467Z,10.26
2019-02-10T07:50:08.389Z,10.36
2019-02-10T07:51:08.311Z,10.28
2019-02-10T07:52:08.236Z,10.37
2019-02-10T07:53:08.152Z,10.33
2019-02-10T07:54:08.075Z,10.34
2019-02-10T07:55:07.994Z,10.29
2019-02-10T07:56:07.916Z,10.36
2019-02-10T07:57:07.834Z,10.37
2019-02-10T07:58:07.758Z,10.31
2019-02-10T07:59:07.678Z,10.26
2019-02-10T08:00:07.600Z,10.34
2019-02-10T08:01:07.519Z,10.37
2019-02-10T08:02:07.441Z,10.28
2019-02-10T08:03:07.363Z,10.36
2019-02-10T08:04:07.284Z,10.36
2019-02-10T08:05:07.203Z,10.47
2019-02-10T08:06:07.126Z,10.44
2019-02-10T08:07:07.049Z,10.34
2019-02-10T08:08:06.969Z,10.34
2019-02-10T08:09:06.890Z,10.33
2019-02-10T08:10:06.810Z,10.28
2019-02-10T08:11:06.731Z,10.26
2019-02-10T08:12:06.653Z,10.29
2019-02-10T08:13:06.573Z,10.37
2019-02-10T08:14:06.495Z,10.36
2019-02-10T08:15:06.416Z,10.37
2019-02-10T08:16:06.338Z,10.36
2019-02-10T08:17:06.260Z,10.44
2019-02-10T08:18:06.180Z,10.25
2019-02-10T08:19:06.101Z,10.28
2019-02-10T08:20:06.027Z,10.41
2019-02-10T08:21:05.944Z,10.37
2019-02-10T08:22:05.869Z,10.40
2019-02-10T08:23:05.786Z,10.40
2019-02-10T08:24:05.709Z,10.47
2019-02-10T08:25:05.630Z,10.53
2019-02-10T08:26:05.552Z,10.49
2019-02-10T08:27:05.473Z,10.62
2019-02-10T08:28:05.394Z,10.58
2019-02-10T08:29:05.316Z,10.55
2019-02-10T08:30:05.237Z,10.51
2019-02-10T08:31:05.159Z,10.43
2019-02-10T08:32:05.079Z,10.55
2019-02-10T08:33:05.002Z,10.58
2019-02-10T08:34:04.925Z,10.60
2019-02-10T08:35:04.845Z,10.59
2019-02-10T08:36:04.765Z,10.67
2019-02-10T08:37:04.687Z,10.84
2019-02-10T08:38:04.611Z,10.87
2019-02-10T08:39:04.530Z,11.14
2019-02-10T08:40:04.453Z,11.31
2019-02-10T08:41:04.372Z,11.38
2019-02-10T08:42:04.294Z,11.41
2019-02-10T08:43:04.217Z,11.36
2019-02-10T08:44:04.138Z,11.32
2019-02-10T08:45:04.057Z,11.31
2019-02-10T08:46:03.981Z,11.34
2019-02-10T08:47:03.902Z,11.53
2019-02-10T08:48:03.822Z,11.50
2019-02-10T08:49:03.743Z,11.36
2019-02-10T08:50:03.668Z,11.54
2019-02-10T08:51:03.588Z,11.46
2019-02-10T08:52:03.509Z,11.36
2019-02-10T08:53:03.430Z,11.38
2019-02-10T08:54:03.352Z,11.36
2019-02-10T08:55:03.277Z,11.49
2019-02-10T08:56:03.195Z,11.54
2019-02-10T08:57:03.117Z,11.54
2019-02-10T08:58:03.038Z,11.57
2019-02-10T08:59:02.960Z,11.53
2019-02-10T09:00:02.882Z,11.56
2019-02-10T09:01:02.802Z,11.42
2019-02-10T09:02:02.734Z,11.42
2019-02-10T09:03:02.795Z,11.39
2019-02-10T09:04:02.567Z,11.47
2019-02-10T09:05:02.488Z,11.38
2019-02-10T09:06:02.411Z,11.47
2019-02-10T09:07:02.332Z,11.39
2019-02-10T09:08:02.256Z,11.38
2019-02-10T09:09:02.832Z,11.41
2019-02-10T09:10:02.098Z,11.56
2019-02-10T09:11:02.020Z,11.56
2019-02-10T09:12:01.952Z,11.56
2019-02-10T09:13:01.867Z,11.54
2019-02-10T09:14:01.785Z,11.54
2019-02-10T09:15:01.707Z,11.57
2019-02-10T09:16:01.632Z,11.38
2019-02-10T09:17:01.551Z,11.54
2019-02-10T09:18:01.473Z,11.59
2019-02-10T09:19:01.396Z,11.60
2019-02-10T09:20:01.322Z,11.67
2019-02-10T09:21:01.237Z,11.74
2019-02-10T09:22:01.162Z,11.81
2019-02-10T09:23:01.083Z,11.69
2019-02-10T09:24:01.004Z,11.67
2019-02-10T09:25:00.946Z,11.68
2019-02-10T09:26:00.850Z,11.68
2019-02-10T09:27:00.771Z,11.75
2019-02-10T09:28:00.692Z,11.71
2019-02-10T09:29:00.616Z,11.86
2019-02-10T09:30:00.538Z,11.86
2019-02-10T09:31:00.461Z,11.86
2019-02-10T09:32:00.382Z,11.81
2019-02-10T09:33:00.306Z,11.78
2019-02-10T09:34:00.233Z,11.83
2019-02-10T09:35:00.201Z,11.78
2019-02-10T09:36:00.072Z,11.86
2019-02-10T09:36:59.999Z,11.79
2019-02-10T09:37:59.917Z,11.76
2019-02-10T09:38:59.839Z,11.78
2019-02-10T09:39:59.761Z,11.89
2019-02-10T09:40:59.682Z,11.90
2019-02-10T09:41:59.607Z,11.97
2019-02-10T09:42:59.530Z,12.08
2019-02-10T09:43:59.452Z,12.13
2019-02-10T09:44:59.373Z,12.15
2019-02-10T09:45:59.295Z,12.08
2019-02-10T09:46:59.220Z,12.11
2019-02-10T09:47:59.143Z,11.95
2019-02-10T09:48:59.063Z,11.98
2019-02-10T09:49:58.986Z,11.90
2019-02-10T09:50:58.909Z,12.02
2019-02-10T09:51:58.832Z,12.13
2019-02-10T09:52:58.753Z,12.18
2019-02-10T09:53:58.676Z,12.11
2019-02-10T09:54:58.601Z,12.16
2019-02-10T09:55:58.524Z,12.34
2019-02-10T09:56:58.444Z,12.24
2019-02-10T09:57:58.367Z,12.41
2019-02-10T09:58:58.292Z,12.51
2019-02-10T09:59:58.214Z,12.39
2019-02-10T10:00:58.133Z,12.36
2019-02-10T10:01:58.058Z,12.34
2019-02-10T10:02:57.980Z,12.19
2019-02-10T10:03:57.903Z,12.16
2019-02-10T10:04:57.826Z,12.21
2019-02-10T10:05:57.748Z,12.26
2019-02-10T10:06:57.672Z,12.12
2019-02-10T10:07:57.594Z,12.23
2019-02-10T10:08:57.516Z,12.31
2019-02-10T10:09:57.438Z,12.18
2019-02-10T10:10:57.362Z,12.16
2019-02-10T10:11:57.285Z,12.16
2019-02-10T10:12:57.210Z,12.36
2019-02-10T10:13:57.132Z,12.23
2019-02-10T10:14:57.058Z,12.27
2019-02-10T10:15:57.026Z,12.23
2019-02-10T10:16:56.897Z,12.26
2019-02-10T10:17:56.822Z,12.39
2019-02-10T10:18:56.743Z,12.49
2019-02-10T10:19:56.666Z,12.60
2019-02-10T10:20:56.587Z,12.60
2019-02-10T10:21:56.511Z,12.64
2019-02-10T10:22:56.437Z,12.59
2019-02-10T10:23:56.357Z,12.56
2019-02-10T10:24:56.279Z,12.56
2019-02-10T10:25:56.202Z,12.64
2019-02-10T10:26:56.127Z,12.85
2019-02-10T10:27:56.048Z,12.84
2019-02-10T10:28:55.975Z,12.88
2019-02-10T10:29:55.894Z,12.79
2019-02-10T10:30:55.816Z,12.82
2019-02-10T10:31:55.739Z,12.84
2019-02-10T10:32:55.660Z,12.64
2019-02-10T10:33:55.583Z,12.70
2019-02-10T10:34:55.507Z,12.69
2019-02-10T10:35:55.429Z,12.77
2019-02-10T10:36:55.352Z,12.63
2019-02-10T10:37:55.276Z,12.61
2019-02-10T10:38:55.202Z,12.59
2019-02-10T10:39:55.122Z,12.59
2019-02-10T10:40:55.044Z,12.55
2019-02-10T10:41:54.969Z,12.56
2019-02-10T10:42:54.890Z,12.49
2019-02-10T10:43:54.812Z,12.48
2019-02-10T10:44:54.736Z,12.53
2019-02-10T10:45:54.657Z,12.46
2019-02-10T10:46:54.582Z,12.39
2019-02-10T10:47:54.505Z,12.41
2019-02-10T10:48:54.427Z,12.45
2019-02-10T10:49:54.349Z,12.56
2019-02-10T10:50:54.272Z,12.64
2019-02-10T10:51:54.197Z,12.59
2019-02-10T10:52:54.118Z,12.61
2019-02-10T10:53:54.041Z,12.59
2019-02-10T10:54:53.964Z,12.49
2019-02-10T10:55:53.887Z,12.45
2019-02-10T10:56:53.808Z,12.45
2019-02-10T10:57:53.732Z,12.27
2019-02-10T10:58:53.662Z,12.11
2019-02-10T10:59:53.578Z,12.03
2019-02-10T11:00:53.611Z,12.09
2019-02-10T11:01:53.422Z,12.02
2019-02-10T11:02:53.347Z,11.98
2019-02-10T11:03:53.270Z,12.08
2019-02-10T11:04:53.189Z,12.05
2019-02-10T11:05:53.112Z,11.93
2019-02-10T11:06:53.135Z,11.94
2019-02-10T11:07:52.957Z,11.89
2019-02-10T11:08:52.878Z,11.94
2019-02-10T11:09:52.802Z,11.76
2019-02-10T11:10:52.729Z,11.84
2019-02-10T11:11:52.649Z,11.68
2019-02-10T11:12:52.568Z,11.67
2019-02-10T11:13:52.494Z,11.68
2019-02-10T11:14:52.413Z,11.69
2019-02-10T11:15:52.334Z,11.69
2019-02-10T11:16:52.257Z,11.69
2019-02-10T11:17:52.179Z,11.61
2019-02-10T11:18:52.102Z,11.61
2019-02-10T11:19:52.028Z,11.64
2019-02-10T11:20:51.945Z,11.65
2019-02-10T11:21:51.865Z,11.64
2019-02-10T11:22:51.801Z,11.69
2019-02-10T11:23:51.711Z,11.71
2019-02-10T11:24:51.632Z,11.69
2019-02-10T11:25:51.555Z,11.69
2019-02-10T11:26:51.492Z,11.64
2019-02-10T11:27:51.399Z,11.53
2019-02-10T11:28:51.326Z,11.39
2019-02-10T11:29:51.265Z,11.57
2019-02-10T11:30:51.164Z,11.53
2019-02-10T11:31:51.089Z,11.56
2019-02-10T11:32:51.010Z,11.47
2019-02-10T11:33:50.931Z,11.56
2019-02-10T11:34:50.853Z,11.56
2019-02-10T11:35:50.785Z,11.51
2019-02-10T11:36:50.764Z,11.53
2019-02-10T11:37:50.636Z,11.57
2019-02-10T11:38:50.538Z,11.53
2019-02-10T11:39:50.463Z,11.56
2019-02-10T11:40:50.382Z,11.69
2019-02-10T11:41:50.304Z,11.67
2019-02-10T11:42:50.227Z,11.68
2019-02-10T11:43:50.151Z,11.61
2019-02-10T11:44:50.069Z,11.56
2019-02-10T11:45:49.992Z,11.47
2019-02-10T11:46:49.913Z,11.53
2019-02-10T11:47:49.835Z,11.59
2019-02-10T11:48:49.757Z,11.38
2019-02-10T11:49:49.678Z,11.39
2019-02-10T11:50:49.601Z,11.43
2019-02-10T11:51:49.529Z,11.32
2019-02-10T11:52:49.444Z,11.38
2019-02-10T11:53:49.365Z,11.39
2019-02-10T11:54:49.288Z,11.32
2019-02-10T11:55:49.212Z,11.18
2019-02-10T11:56:49.131Z,11.20
2019-02-10T11:57:49.053Z,11.21
2019-02-10T11:58:48.975Z,11.28
2019-02-10T11:59:48.897Z,11.57
2019-02-10T12:00:48.819Z,11.68
2019-02-10T12:01:48.741Z,11.64
2019-02-10T12:02:48.663Z,11.71
2019-02-10T12:03:48.585Z,11.64
2019-02-10T12:04:48.508Z,11.64
2019-02-10T12:05:48.427Z,11.64
2019-02-10T12:06:48.350Z,11.56
2019-02-10T12:07:48.273Z,11.41
2019-02-10T12:08:48.193Z,11.34
2019-02-10T12:09:51.688Z,11.36
2019-02-10T12:10:48.037Z,11.42
2019-02-10T12:11:47.959Z,11.41
2019-02-10T12:12:47.879Z,11.29
2019-02-10T12:13:47.801Z,11.17
2019-02-10T12:14:47.723Z,11.28
2019-02-10T12:15:47.646Z,11.20
2019-02-10T12:16:47.566Z,11.17
2019-02-10T12:17:47.508Z,11.24
2019-02-10T12:18:47.410Z,11.23
2019-02-10T12:19:47.331Z,11.38
2019-02-10T12:20:47.251Z,11.17
2019-02-10T12:21:47.175Z,11.17
2019-02-10T12:22:50.168Z,11.26
2019-02-10T12:23:47.016Z,11.20
2019-02-10T12:24:46.939Z,10.96
2019-02-10T12:25:46.859Z,10.93
2019-02-10T12:26:46.780Z,10.92
2019-02-10T12:27:46.707Z,11.00
2019-02-10T12:28:46.623Z,10.91
2019-02-10T12:29:46.545Z,10.87
2019-02-10T12:30:46.465Z,10.71
2019-02-10T12:31:46.386Z,10.71
2019-02-10T12:32:46.306Z,10.75
2019-02-10T12:33:46.228Z,10.84
2019-02-10T12:34:46.150Z,10.93
2019-02-10T12:35:46.072Z,10.95
2019-02-10T12:36:45.992Z,10.95
2019-02-10T12:37:45.913Z,10.87
2019-02-10T12:38:45.833Z,10.83
2019-02-10T12:39:45.753Z,10.83
2019-02-10T12:40:45.673Z,10.85
2019-02-10T12:41:45.596Z,10.91
2019-02-10T12:42:45.518Z,10.88
2019-02-10T12:43:45.437Z,10.77
2019-02-10T12:44:45.358Z,10.78
2019-02-10T12:45:45.285Z,10.67
2019-02-10T12:46:45.201Z,10.66
2019-02-10T12:47:45.122Z,10.77
2019-02-10T12:48:45.042Z,10.66
2019-02-10T12:49:44.962Z,10.81
2019-02-10T12:50:44.884Z,10.77
2019-02-10T12:51:44.804Z,10.73
2019-02-10T12:52:44.727Z,10.71
2019-02-10T12:53:44.647Z,10.75
2019-02-10T12:54:44.567Z,10.75
2019-02-10T12:55:44.489Z,10.87
2019-02-10T12:56:44.422Z,10.85
2019-02-10T12:57:44.332Z,10.80
2019-02-10T12:58:44.252Z,10.84
2019-02-10T12:59:44.173Z,10.96
2019-02-10T13:00:44.093Z,10.88
2019-02-10T13:01:44.014Z,10.81
2019-02-10T13:02:43.936Z,10.88
2019-02-10T13:03:43.855Z,10.91
2019-02-10T13:04:43.776Z,10.85
2019-02-10T13:05:43.699Z,10.85
2019-02-10T13:06:43.620Z,10.85